M I D A S
Marine Information and Data Acquisition System
Tripno 2149 of the Zeeleeuw from 2011-07-20 06:56:54 to 2011-07-20 15:44:48
Back to CruiseResearch ActivitiesStationsMapUnderway DataData graphs

EquipmentUnitsComment
TimeDGPSUTC
LatitudeDGPSDM.mWGS84
LongitudeDGPSDM.mWGS84
TemperatureSBE03/SBE38deg celciusITS90
ConductivitySBE21S/mITS90
SalinitySBE21 Practical Salinity Units
ChlorophylAChelsea fluorimeterg/lCalibrated in Aceton
Missing or incorrect values are displayed as -999
Sea surface data collected by the RV Zeeleeuw from 2011-07-20 06:46:38 to 2011-07-20 16:07:07
Time Latitude Longitude Temperature Conductivity Salinity ChlorophylA
2011-07-20 06:47:42 51°13.635 2°56.019 20.9029 0.014952 0.08001 -3.020363
2011-07-20 06:48:42 51°13.636 2°56.02 20.9081 0.014952 0.080013 -3.020363
2011-07-20 06:49:42 51°13.636 2°56.02 20.9126 0.014952 0.080017 -3.020363
2011-07-20 06:50:42 51°13.636 2°56.019 20.9077 0.014952 0.08002 -3.020363
2011-07-20 06:51:43 51°13.636 2°56.019 20.9172 0.014952 0.080025 -3.020363
2011-07-20 06:52:43 51°13.636 2°56.019 20.925 0.014952 0.080028 -3.020363
2011-07-20 06:53:43 51°13.637 2°56.019 20.9342 0.014952 0.080031 -3.020363
2011-07-20 06:54:43 51°13.636 2°56.019 20.9398 0.014952 0.080035 -3.020363
2011-07-20 06:55:43 51°13.636 2°56.019 20.9523 0.014952 0.080038 -3.020363
2011-07-20 06:56:43 51°13.637 2°56.022 20.9504 0.014952 0.080041 -3.020363
2011-07-20 06:57:43 51°13.636 2°56.019 20.9612 0.014952 0.080045 -3.020363
2011-07-20 06:58:43 51°13.636 2°56.019 20.9602 0.014952 0.080048 -3.020363
2011-07-20 06:59:43 51°13.635 2°56.019 20.9761 0.014952 0.080052 -3.020363
2011-07-20 07:00:42 51°13.637 2°56.008 20.9578 0.014952 0.080055 -3.020363
2011-07-20 07:01:46 51°13.667 2°55.905 20.9867 0.014952 0.080059 -3.020363
2011-07-20 07:02:46 51°13.701 2°55.805 20.9744 0.014952 0.080054 -3.020363
2011-07-20 07:03:46 51°13.757 2°55.704 20.9796 0.014952 0.080056 -3.020363
2011-07-20 07:04:46 51°13.838 2°55.622 20.9901 0.014952 0.080058 -3.020363
2011-07-20 07:05:46 51°13.924 2°55.598 20.9946 0.014952 0.080062 -3.020363
2011-07-20 07:06:45 51°13.967 2°55.61 20.9996 0.014952 0.080065 -3.020363
2011-07-20 07:07:46 51°13.972 2°55.557 20.8875 0.014952 0.080067 -3.020363
2011-07-20 07:08:46 51°14.056 2°55.465 20.9834 0.014952 0.080073 -3.020363
2011-07-20 07:09:44 51°14.174 2°55.378 20.9781 0.014952 0.080076 -3.020363
2011-07-20 07:10:43 51°14.302 2°55.258 20.9872 0.014952 0.080082 -3.020363
2011-07-20 07:11:43 51°14.441 2°55.1 20.9391 0.014952 0.080085 -3.020363
2011-07-20 07:12:43 51°14.592 2°54.905 20.8746 0.014952 0.080091 -3.020363
2011-07-20 07:13:43 51°14.763 2°54.705 17.7325 4.499162 32.715526 -3.020363
2011-07-20 07:14:42 51°14.937 2°54.51 17.5492 4.399301 33.450157 -3.020363
2011-07-20 07:15:43 51°15.116 2°54.316 17.4059 4.4187 33.805684 -3.020363
2011-07-20 07:16:43 51°15.282 2°54.105 17.3409 4.433015 34.007288 -3.020363
2011-07-20 07:17:43 51°15.445 2°53.89 17.296 4.460608 34.308684 -3.020363
2011-07-20 07:18:42 51°15.615 2°53.701 17.2789 4.470566 34.423757 -3.020363
2011-07-20 07:19:43 51°15.794 2°53.511 17.2726 4.465276 34.396552 -3.020363
2011-07-20 07:20:43 51°15.986 2°53.381 17.2701 4.457289 34.331076 -3.020363
2011-07-20 07:21:41 51°16.179 2°53.283 17.2596 4.463098 34.38731 -3.020363
2011-07-20 07:22:43 51°16.39 2°53.206 17.2583 4.474198 34.494713 -3.020363
2011-07-20 07:23:43 51°16.592 2°53.119 17.2362 4.477102 34.524586 -3.020363
2011-07-20 07:24:43 51°16.797 2°53.069 17.1986 4.478451 34.5623 -3.020363
2011-07-20 07:25:43 51°16.999 2°53.018 17.1641 4.444221 34.295941 -3.020363
2011-07-20 07:26:42 51°17.2 2°53.049 17.1203 4.474925 34.588171 -3.020363
2011-07-20 07:27:43 51°17.4 2°53.139 17.0881 4.472229 34.604778 -3.020363
2011-07-20 07:28:43 51°17.588 2°53.266 17.0716 4.468702 34.595595 -3.020363
2011-07-20 07:29:43 51°17.759 2°53.432 17.0733 4.468599 34.604359 -3.020363
2011-07-20 07:30:42 51°17.893 2°53.663 17.0681 4.468806 34.610301 -3.020363
2011-07-20 07:31:43 51°18.011 2°53.927 17.0671 4.468495 34.608984 -3.020363
2011-07-20 07:32:43 51°18.135 2°54.176 17.0706 4.468288 34.607875 -3.020363
2011-07-20 07:33:42 51°18.246 2°54.434 17.0697 4.468288 34.607875 -3.020363
2011-07-20 07:34:43 51°18.377 2°54.681 17.0768 4.468184 34.604903 -3.020363
2011-07-20 07:35:42 51°18.488 2°54.937 17.0772 4.469429 34.611555 -3.020363
2011-07-20 07:36:42 51°18.606 2°55.194 17.0841 4.469636 34.611283 -3.020363
2011-07-20 07:37:42 51°18.709 2°55.461 17.0809 4.470258 34.609776 -3.020363
2011-07-20 07:38:42 51°18.788 2°55.749 17.0744 4.469429 34.610174 -3.020363
2011-07-20 07:39:42 51°18.881 2°56.026 17.0812 4.469014 34.609338 -3.020363
2011-07-20 07:40:42 51°18.962 2°56.311 17.0775 4.469118 34.607476 -3.020363
2011-07-20 07:41:42 51°19.055 2°56.587 17.0749 4.468806 34.605468 -3.020363
2011-07-20 07:42:42 51°19.138 2°56.87 17.0776 4.468495 34.605531 -3.020363
2011-07-20 07:43:42 51°19.221 2°57.154 17.0812 4.468599 34.604359 -3.020363
2011-07-20 07:44:43 51°19.322 2°57.43 17.0865 4.469014 34.603815 -3.020363
2011-07-20 07:45:43 51°19.419 2°57.702 17.0876 4.468184 34.594549 -3.020363
2011-07-20 07:46:42 51°19.497 2°57.982 17.0841 4.468806 34.597875 -3.020363
2011-07-20 07:47:43 51°19.596 2°58.257 17.0952 4.469221 34.602852 -3.020363
2011-07-20 07:48:42 51°19.676 2°58.535 17.0941 4.469947 34.601556 -3.020363
2011-07-20 07:49:42 51°19.764 2°58.811 17.0962 4.469843 34.600657 -3.020363
2011-07-20 07:50:43 51°19.859 2°59.086 17.0977 4.469947 34.598106 -3.020363
2011-07-20 07:51:42 51°19.945 2°59.355 17.0988 4.468391 34.588068 -3.020363
2011-07-20 07:52:43 51°20.028 2°59.639 17.1036 4.46891 34.587736 -3.020363
2011-07-20 07:53:42 51°20.103 2°59.916 17.1128 4.469221 34.584917 -3.020363
2011-07-20 07:54:42 51°20.187 3°0.191 17.1289 4.470362 34.586531 -3.020363
2011-07-20 07:55:42 51°20.269 3°0.467 17.1404 4.471918 34.590362 -3.020363
2011-07-20 07:56:42 51°20.366 3°0.73 17.1765 4.472747 34.583771 -3.020363
2011-07-20 07:57:42 51°20.456 3°0.995 17.3278 4.47617 34.569362 -3.020363
2011-07-20 07:58:43 51°20.53 3°1.275 17.3704 4.436024 34.088996 -3.020363
2011-07-20 07:59:43 51°20.601 3°1.551 17.4339 4.415279 33.881823 -3.020363
2011-07-20 08:00:42 51°20.678 3°1.811 17.4668 4.395157 33.671193 -3.020363
2011-07-20 08:01:42 51°20.807 3°1.831 17.5454 4.374206 33.425119 -3.020363
2011-07-20 08:02:42 51°20.802 3°1.603 17.6011 4.376176 33.422223 -3.020363
2011-07-20 08:03:42 51°20.661 3°1.449 17.4858 4.375864 33.363788 -3.020363
2011-07-20 08:04:42 51°20.511 3°1.291 17.4401 4.400965 33.696372 -3.020363
2011-07-20 08:05:43 51°20.404 3°1.163 17.5003 4.397646 33.666617 -3.020363
2011-07-20 08:06:42 51°20.35 3°1.063 17.4717 4.396919 33.627252 -3.020363
2011-07-20 08:07:43 51°20.304 3°0.937 17.2723 4.448367 34.150593 -3.020363
2011-07-20 08:08:42 51°20.256 3°0.772 17.2262 4.477206 34.508361 -3.020363
2011-07-20 08:09:42 51°20.186 3°0.542 17.2211 4.477932 34.544094 -3.020363
2011-07-20 08:10:43 51°20.177 3°0.279 17.2301 4.478036 34.555282 -3.020363
2011-07-20 08:11:42 51°20.259 3°0.165 17.2239 4.480733 34.562801 -3.020363
2011-07-20 08:12:42 51°20.293 3°0.249 17.2226 4.48177 34.567645 -3.020363
2011-07-20 08:13:42 51°20.286 3°0.47 17.2414 4.480318 34.561275 -3.020363
2011-07-20 08:14:42 51°20.344 3°0.715 17.4443 4.456977 34.287604 -3.020363
2011-07-20 08:15:42 51°20.429 3°0.972 17.4494 4.422227 33.88793 -3.020363
2011-07-20 08:16:42 51°20.505 3°1.24 17.4417 4.397646 33.668609 -3.020363
2011-07-20 08:17:42 51°20.57 3°1.516 17.4456 4.402106 33.714787 -3.020363
2011-07-20 08:18:43 51°20.657 3°1.782 17.4537 4.406981 33.769215 -3.020363
2011-07-20 08:19:42 51°20.727 3°2.048 17.431 4.412478 33.817682 -3.020363
2011-07-20 08:20:42 51°20.796 3°2.308 17.4597 4.40501 33.760316 -3.020363
2011-07-20 08:21:43 51°20.87 3°2.353 17.5272 4.375243 33.471543 -3.020363
2011-07-20 08:22:42 51°20.918 3°2.354 17.5645 4.342367 33.135594 -3.020363
2011-07-20 08:23:43 51°20.971 3°2.475 17.5674 4.321626 32.936712 -3.020363
2011-07-20 08:24:42 51°21.02 3°2.703 17.5132 4.31893 32.924746 -3.020363
2011-07-20 08:25:42 51°21.02 3°2.967 17.4788 4.30545 32.846727 -3.020363
2011-07-20 08:26:43 51°21.023 3°3.236 17.5322 4.294562 32.777795 -3.020363
2011-07-20 08:27:42 51°21.016 3°3.496 17.5097 4.283984 32.6394 -3.020363
2011-07-20 08:28:43 51°21.002 3°3.765 17.4623 4.274652 32.590744 -3.020363
2011-07-20 08:29:42 51°21.03 3°4.016 17.4807 4.266876 32.555283 -3.020363
2011-07-20 08:30:42 51°21.064 3°4.273 17.4561 4.254434 32.439679 -3.020363
2011-07-20 08:31:42 51°21.084 3°4.534 17.4442 4.245621 32.381225 -3.020363
2011-07-20 08:32:43 51°21.12 3°4.793 17.4688 4.234319 32.285624 -3.020363
2011-07-20 08:33:42 51°21.139 3°5.047 17.4925 4.222188 32.155757 -3.020363
2011-07-20 08:34:43 51°21.171 3°5.304 17.5413 4.209954 32.030954 -3.020363
2011-07-20 08:35:42 51°21.185 3°5.558 17.5483 4.203318 31.957008 -3.020363
2011-07-20 08:36:42 51°21.216 3°5.81 17.5835 4.201037 31.916324 -3.020363
2011-07-20 08:37:43 51°21.231 3°6.07 17.6091 4.197719 31.861912 -3.020363
2011-07-20 08:38:42 51°21.253 3°6.317 17.604 4.190047 31.790072 -3.020363
2011-07-20 08:39:43 51°21.282 3°6.565 17.5761 4.190772 31.803703 -3.020363
2011-07-20 08:40:42 51°21.327 3°6.654 17.601 4.183205 31.750832 -3.020363
2011-07-20 08:41:42 51°21.378 3°6.579 17.6429 4.178435 31.688677 -3.020363
2011-07-20 08:42:43 51°21.386 3°6.434 17.6638 4.180405 31.675528 -3.020363
2011-07-20 08:43:42 51°21.324 3°6.332 17.6519 4.182374 31.684113 -3.020363
2011-07-20 08:44:42 51°21.218 3°6.268 17.6364 4.180405 31.675528 -3.020363
2011-07-20 08:45:42 51°21.141 3°6.176 17.638 4.180612 31.685972 -3.020363
2011-07-20 08:46:42 51°21.078 3°6.09 17.6146 4.180094 31.684072 -3.020363
2011-07-20 08:47:42 51°21.021 3°6.013 17.5981 4.184967 31.740217 -3.020363
2011-07-20 08:48:42 51°20.968 3°5.934 17.5854 4.19098 31.804211 -3.020363
2011-07-20 08:49:42 51°20.919 3°5.853 17.5864 4.191913 31.817107 -3.020363
2011-07-20 08:50:42 51°20.875 3°5.767 17.5978 4.192639 31.820756 -3.020363
2011-07-20 08:51:42 51°20.848 3°5.656 17.5382 4.200829 31.883256 -3.020363
2011-07-20 08:52:42 51°20.848 3°5.529 17.5054 4.214722 32.046876 -3.020363
2011-07-20 08:53:43 51°20.863 3°5.408 17.5633 4.224883 32.150829 -3.020363
2011-07-20 08:54:43 51°20.891 3°5.294 17.5887 4.217003 32.042937 -3.020363
2011-07-20 08:55:43 51°20.929 3°5.196 17.6083 4.207982 31.942608 -3.020363
2011-07-20 08:56:42 51°20.973 3°5.117 17.6217 4.206946 31.931945 -3.020363
2011-07-20 08:57:43 51°21.026 3°5.051 17.6215 4.202487 31.881672 -3.020363
2011-07-20 08:58:43 51°21.081 3°5.007 17.6315 4.199377 31.854714 -3.020363
2011-07-20 08:59:42 51°21.134 3°4.989 17.6245 4.196267 31.825889 -3.020363
2011-07-20 09:00:42 51°21.186 3°4.993 17.6057 4.194712 31.815845 -3.020363
2011-07-20 09:01:42 51°21.232 3°5.014 17.6121 4.192742 31.809775 -3.020363
2011-07-20 09:02:43 51°21.276 3°5.041 17.6228 4.191187 31.793491 -3.020363
2011-07-20 09:03:42 51°21.317 3°5.072 17.6445 4.189735 31.76999 -3.020363
2011-07-20 09:04:44 51°21.366 3°5.095 17.6532 4.187869 31.741755 -3.020363
2011-07-20 09:05:42 51°21.415 3°5.11 17.6733 4.19015 31.74674 -3.020363
2011-07-20 09:06:43 51°21.464 3°5.134 17.6828 4.189838 31.732304 -3.020363
2011-07-20 09:07:43 51°21.509 3°5.167 17.6851 4.190149 31.729343 -3.020363
2011-07-20 09:08:43 51°21.551 3°5.206 17.6951 4.190149 31.720032 -3.020363
2011-07-20 09:09:43 51°21.59 3°5.25 17.688 4.18932 31.713646 -3.020363
2011-07-20 09:10:43 51°21.624 3°5.299 17.6851 4.187661 31.707078 -3.020363
2011-07-20 09:11:42 51°21.654 3°5.353 17.6787 4.186935 31.699706 -3.020363
2011-07-20 09:12:43 51°21.685 3°5.403 17.6693 4.185795 31.695034 -3.020363
2011-07-20 09:13:43 51°21.702 3°5.47 17.6525 4.184033 31.690067 -3.020363
2011-07-20 09:14:43 51°21.711 3°5.542 17.6449 4.182582 31.686487 -3.020363
2011-07-20 09:15:43 51°21.709 3°5.614 17.64 4.18113 31.681043 -3.020363
2011-07-20 09:16:43 51°21.694 3°5.687 17.642 4.180508 31.678887 -3.020363
2011-07-20 09:17:43 51°21.663 3°5.754 17.6407 4.180301 31.674031 -3.020363
2011-07-20 09:18:43 51°21.618 3°5.811 17.6463 4.178539 31.660372 -3.020363
2011-07-20 09:19:43 51°21.555 3°5.84 17.6434 4.179472 31.665779 -3.020363
2011-07-20 09:20:43 51°21.48 3°5.824 17.6485 4.178953 31.663878 -3.020363
2011-07-20 09:21:42 51°21.404 3°5.775 17.6628 4.179679 31.66381 -3.020363
2011-07-20 09:22:43 51°21.333 3°5.679 17.6885 4.181441 31.662585 -3.020363
2011-07-20 09:23:43 51°21.284 3°5.559 17.6909 4.183514 31.668326 -3.020363
2011-07-20 09:24:43 51°21.251 3°5.455 17.6728 4.183825 31.673432 -3.020363
2011-07-20 09:25:43 51°21.223 3°5.369 17.6641 4.183307 31.678972 -3.020363
2011-07-20 09:26:43 51°21.198 3°5.294 17.6605 4.182996 31.683167 -3.020363
2011-07-20 09:27:43 51°21.174 3°5.226 17.6534 4.182789 31.685137 -3.020363
2011-07-20 09:28:43 51°21.151 3°5.162 17.6597 4.181545 31.677723 -3.020363
2011-07-20 09:29:43 51°21.127 3°5.09 17.6476 4.182685 31.689846 -3.020363
2011-07-20 09:30:43 51°21.127 3°4.967 17.6219 4.1831 31.694593 -3.020363
2011-07-20 09:31:43 51°21.172 3°4.911 17.6052 4.182271 31.716162 -3.020363
2011-07-20 09:32:43 51°21.197 3°4.963 17.6095 4.180923 31.70911 -3.020363
2011-07-20 09:33:43 51°21.225 3°5.076 17.6309 4.18082 31.700151 -3.020363
2011-07-20 09:34:43 51°21.24 3°5.226 17.6504 4.181752 31.691269 -3.020363
2011-07-20 09:35:43 51°21.252 3°5.381 17.6584 4.182167 31.68174 -3.020363
2011-07-20 09:36:43 51°21.266 3°5.536 17.6532 4.182167 31.680499 -3.020363
2011-07-20 09:37:43 51°21.287 3°5.689 17.6441 4.18196 31.681229 -3.020363
2011-07-20 09:38:43 51°21.301 3°5.847 17.6198 4.180819 31.681517 -3.020363
2011-07-20 09:39:43 51°21.302 3°6.01 17.6246 4.179368 31.684145 -3.020363
2011-07-20 09:40:43 51°21.29 3°6.148 17.6348 4.181856 31.700221 -3.020363
2011-07-20 09:41:42 51°21.281 3°6.258 17.6511 4.185174 31.717715 -3.020363
2011-07-20 09:42:43 51°21.276 3°6.363 17.6371 4.189113 31.745436 -3.020363
2011-07-20 09:43:43 51°21.267 3°6.464 17.6436 4.190875 31.765941 -3.020363
2011-07-20 09:44:43 51°21.255 3°6.565 17.631 4.192016 31.77621 -3.020363
2011-07-20 09:45:42 51°21.243 3°6.666 17.629 4.191705 31.780428 -3.020363
2011-07-20 09:46:43 51°21.235 3°6.77 17.6352 4.191705 31.781051 -3.020363
2011-07-20 09:47:43 51°21.229 3°6.873 17.6556 4.192431 31.78034 -3.020363
2011-07-20 09:48:43 51°21.222 3°6.979 17.6555 4.193571 31.777535 -3.020363
2011-07-20 09:49:43 51°21.209 3°7.085 17.6524 4.192534 31.771257 -3.020363
2011-07-20 09:50:43 51°21.209 3°7.186 17.6702 4.191394 31.759125 -3.020363
2011-07-20 09:51:43 51°21.221 3°7.284 17.6877 4.191808 31.745845 -3.020363
2011-07-20 09:52:43 51°21.232 3°7.386 17.6836 4.191704 31.736894 -3.020363
2011-07-20 09:53:43 51°21.245 3°7.49 17.6807 4.190564 31.730363 -3.020363
2011-07-20 09:54:43 51°21.253 3°7.597 17.671 4.189216 31.722701 -3.020363
2011-07-20 09:55:43 51°21.258 3°7.707 17.664 4.188076 31.716789 -3.020363
2011-07-20 09:56:43 51°21.264 3°7.814 17.6621 4.186832 31.711242 -3.020363
2011-07-20 09:57:43 51°21.274 3°7.917 17.657 4.186521 31.711717 -3.020363
2011-07-20 09:58:43 51°21.284 3°8.021 17.6573 4.186417 31.713325 -3.020363
2011-07-20 09:59:43 51°21.29 3°8.126 17.6624 4.186832 31.715588 -3.020363
2011-07-20 10:00:43 51°21.294 3°8.232 17.6664 4.187661 31.718872 -3.020363
2011-07-20 10:01:42 51°21.299 3°8.337 17.665 4.18818 31.72139 -3.020363
2011-07-20 10:02:43 51°21.306 3°8.442 17.6739 4.188491 31.722777 -3.020363
2011-07-20 10:03:42 51°21.318 3°8.538 17.6786 4.189216 31.723942 -3.020363
2011-07-20 10:04:43 51°21.353 3°8.612 17.6835 4.189631 31.725584 -3.020363
2011-07-20 10:05:43 51°21.401 3°8.669 17.689 4.190149 31.725618 -3.020363
2011-07-20 10:06:43 51°21.459 3°8.697 17.6986 4.190771 31.727149 -3.020363
2011-07-20 10:07:43 51°21.527 3°8.687 17.6999 4.192326 31.730975 -3.020363
2011-07-20 10:08:43 51°21.597 3°8.668 17.6924 4.193363 31.740352 -3.020363
2011-07-20 10:09:43 51°21.67 3°8.639 17.6933 4.193467 31.746817 -3.020363
2011-07-20 10:10:43 51°21.734 3°8.561 17.6927 4.1944 31.753457 -3.020363
2011-07-20 10:11:43 51°21.762 3°8.422 17.6904 4.195436 31.761595 -3.020363
2011-07-20 10:12:42 51°21.734 3°8.271 17.6962 4.196266 31.771088 -3.020363
2011-07-20 10:13:43 51°21.69 3°8.137 17.6889 4.197302 31.775496 -3.020363
2011-07-20 10:14:43 51°21.655 3°8.023 17.6886 4.196577 31.776202 -3.020363
2011-07-20 10:15:43 51°21.626 3°7.919 17.683 4.196059 31.773065 -3.020363
2011-07-20 10:16:43 51°21.597 3°7.82 17.6823 4.195748 31.771059 -3.020363
2011-07-20 10:17:43 51°21.567 3°7.725 17.685 4.195437 31.769052 -3.020363
2011-07-20 10:18:43 51°21.535 3°7.634 17.6871 4.195333 31.766311 -3.020363
2011-07-20 10:19:43 51°21.504 3°7.545 17.693 4.195436 31.763459 -3.020363
2011-07-20 10:20:43 51°21.472 3°7.458 17.6973 4.195747 31.762358 -3.020363
2011-07-20 10:21:42 51°21.441 3°7.374 17.7044 4.195955 31.761004 -3.020363
2011-07-20 10:22:43 51°21.409 3°7.274 17.7103 4.196369 31.758917 -3.020363
2011-07-20 10:23:43 51°21.419 3°7.084 17.7282 4.196991 31.75734 -3.020363
2011-07-20 10:24:43 51°21.495 3°6.833 17.7068 4.197717 31.758501 -3.020363
2011-07-20 10:25:43 51°21.595 3°6.591 17.6842 4.196473 31.762277 -3.020363
2011-07-20 10:26:43 51°21.718 3°6.388 17.669 4.195644 31.773291 -3.020363
2011-07-20 10:27:43 51°21.867 3°6.271 17.6744 4.196888 31.790649 -3.020363
2011-07-20 10:28:43 51°21.996 3°6.299 17.6813 4.199895 31.811085 -3.020363
2011-07-20 10:29:43 51°22.062 3°6.346 17.7159 4.20373 31.83666 -3.020363
2011-07-20 10:30:42 51°22.2 3°6.368 17.7868 4.20881 31.846581 -3.020363
2011-07-20 10:31:43 51°22.385 3°6.41 17.7789 4.219903 31.891681 -3.020363
2011-07-20 10:32:43 51°22.559 3°6.513 17.7385 4.226642 31.961634 -3.020363
2011-07-20 10:33:43 51°22.733 3°6.616 17.7502 4.22799 32.002997 -3.020363
2011-07-20 10:34:43 51°22.91 3°6.714 17.7042 4.232034 32.031535 -3.020363
2011-07-20 10:35:43 51°23.079 3°6.828 17.6927 4.231516 32.049697 -3.020363
2011-07-20 10:36:43 51°23.263 3°6.858 17.7785 4.241262 32.14784 -3.020363
2011-07-20 10:37:43 51°23.457 3°6.81 17.7497 4.258473 32.234277 -3.020363
2011-07-20 10:38:43 51°23.655 3°6.761 17.759 4.267287 32.31573 -3.020363
2011-07-20 10:39:43 51°23.858 3°6.73 17.7306 4.274649 32.388126 -3.020363
2011-07-20 10:40:43 51°24.064 3°6.698 17.7257 4.279419 32.452592 -3.020363
2011-07-20 10:41:43 51°24.268 3°6.691 17.8042 4.284292 32.465311 -3.020363
2011-07-20 10:42:43 51°24.445 3°6.665 17.807 4.290306 32.473092 -3.020363
2011-07-20 10:43:43 51°24.541 3°6.695 17.7517 4.284292 32.437431 -3.020363
2011-07-20 10:44:43 51°24.598 3°6.779 17.7285 4.278486 32.42123 -3.020363
2011-07-20 10:45:43 51°24.623 3°6.911 17.7205 4.27776 32.428393 -3.020363
2011-07-20 10:46:43 51°24.615 3°7.061 17.7195 4.279938 32.451907 -3.020363
2011-07-20 10:47:43 51°24.605 3°7.215 17.7206 4.282945 32.481188 -3.020363
2011-07-20 10:48:43 51°24.594 3°7.37 17.724 4.287092 32.511878 -3.020363
2011-07-20 10:49:43 51°24.581 3°7.526 17.7314 4.29124 32.544475 -3.020363
2011-07-20 10:50:43 51°24.566 3°7.682 17.7359 4.295491 32.575403 -3.020363
2011-07-20 10:51:43 51°24.548 3°7.838 17.7424 4.299847 32.607206 -3.020363
2011-07-20 10:52:43 51°24.542 3°7.992 17.7563 4.303061 32.630618 -3.020363
2011-07-20 10:53:43 51°24.544 3°8.145 17.7685 4.307416 32.656034 -3.020363
2011-07-20 10:54:43 51°24.543 3°8.299 17.7786 4.311045 32.679121 -3.020363
2011-07-20 10:55:43 51°24.536 3°8.454 17.7845 4.314053 32.696294 -3.020363
2011-07-20 10:56:43 51°24.531 3°8.609 17.7934 4.316438 32.711385 -3.020363
2011-07-20 10:57:43 51°24.53 3°8.762 17.8061 4.317371 32.709711 -3.020363
2011-07-20 10:58:43 51°24.53 3°8.914 17.8055 4.316437 32.69543 -3.020363
2011-07-20 10:59:43 51°24.527 3°9.066 17.8026 4.312704 32.663834 -3.020363
2011-07-20 11:00:43 51°24.519 3°9.216 17.81 4.308453 32.631038 -3.020363
2011-07-20 11:01:43 51°24.517 3°9.364 17.8413 4.305756 32.596777 -3.020363
2011-07-20 11:02:43 51°24.517 3°9.51 17.857 4.304408 32.562516 -3.020363
2011-07-20 11:03:43 51°24.514 3°9.657 17.8444 4.300363 32.519466 -3.020363
2011-07-20 11:04:42 51°24.507 3°9.801 17.8289 4.293727 32.479222 -3.020363
2011-07-20 11:05:43 51°24.505 3°9.947 17.8657 4.28595 32.417936 -3.020363
2011-07-20 11:06:43 51°24.536 3°10.052 17.9292 4.284602 32.370587 -3.020363
2011-07-20 11:07:43 51°24.604 3°10.026 17.9645 4.283149 32.308035 -3.020363
2011-07-20 11:08:43 51°24.627 3°9.89 17.9599 4.28429 32.312622 -3.020363
2011-07-20 11:09:43 51°24.623 3°9.718 18.0234 4.289059 32.325809 -3.020363
2011-07-20 11:10:43 51°24.623 3°9.538 17.9594 4.304198 32.431272 -3.020363
2011-07-20 11:11:43 51°24.626 3°9.363 17.8917 4.311147 32.543415 -3.020363
2011-07-20 11:12:43 51°24.63 3°9.216 17.8593 4.31374 32.610912 -3.020363
2011-07-20 11:13:43 51°24.631 3°9.08 17.8428 4.315296 32.645022 -3.020363
2011-07-20 11:14:42 51°24.627 3°8.948 17.8296 4.31737 32.675921 -3.020363
2011-07-20 11:15:41 51°24.624 3°8.821 17.8154 4.318822 32.698396 -3.020363
2011-07-20 11:16:43 51°24.625 3°8.688 17.8073 4.319444 32.711314 -3.020363
2011-07-20 11:17:43 51°24.627 3°8.56 17.8008 4.319756 32.720328 -3.020363
2011-07-20 11:18:43 51°24.626 3°8.431 17.7968 4.319548 32.723041 -3.020363
2011-07-20 11:19:43 51°24.621 3°8.301 17.7908 4.319134 32.723998 -3.020363
2011-07-20 11:20:41 51°24.618 3°8.173 17.7833 4.318926 32.727351 -3.020363
2011-07-20 11:21:42 51°24.639 3°8.015 17.7791 4.318097 32.725436 -3.020363
2011-07-20 11:22:43 51°24.756 3°7.835 17.7748 4.316956 32.717692 -3.020363
2011-07-20 11:23:43 51°24.922 3°7.679 17.7524 4.313016 32.691341 -3.020363
2011-07-20 11:24:42 51°25.098 3°7.615 17.7391 4.307313 32.658984 -3.020363
2011-07-20 11:25:43 51°25.286 3°7.605 17.7297 4.306068 32.662481 -3.020363
2011-07-20 11:26:43 51°25.47 3°7.56 17.7304 4.310424 32.701315 -3.020363
2011-07-20 11:27:43 51°25.656 3°7.549 17.7343 4.31789 32.763337 -3.020363
2011-07-20 11:28:43 51°25.841 3°7.517 17.7336 4.326705 32.840659 -3.020363
2011-07-20 11:29:42 51°26.021 3°7.505 17.7737 4.334793 32.899638 -3.020363
2011-07-20 11:30:43 51°26.206 3°7.496 17.8529 4.340808 32.914002 -3.020363
2011-07-20 11:31:41 51°26.381 3°7.456 17.8667 4.334895 32.810121 -3.020363
2011-07-20 11:32:42 51°26.568 3°7.425 17.8162 4.324629 32.725203 -3.020363
2011-07-20 11:33:43 51°26.755 3°7.404 17.7884 4.317682 32.702773 -3.020363
2011-07-20 11:34:43 51°26.939 3°7.372 17.7709 4.305342 32.616169 -3.020363
2011-07-20 11:35:43 51°27.124 3°7.376 17.7513 4.29435 32.539662 -3.020363
2011-07-20 11:36:43 51°27.298 3°7.451 17.7493 4.285744 32.477599 -3.020363
2011-07-20 11:37:43 51°27.481 3°7.475 17.7605 4.277241 32.406266 -3.020363
2011-07-20 11:38:42 51°27.624 3°7.492 17.7719 4.270397 32.33762 -3.020363
2011-07-20 11:39:43 51°27.741 3°7.517 17.8058 4.268945 32.310202 -3.020363
2011-07-20 11:40:41 51°27.857 3°7.563 17.7953 4.271123 32.311584 -3.020363
2011-07-20 11:41:42 51°27.849 3°7.656 17.7891 4.271227 32.325701 -3.020363
2011-07-20 11:42:43 51°27.796 3°7.687 17.7953 4.270915 32.323071 -3.020363
2011-07-20 11:43:43 51°27.738 3°7.698 17.7993 4.271745 32.321254 -3.020363
2011-07-20 11:44:43 51°27.622 3°7.663 17.8125 4.272056 32.315057 -3.020363
2011-07-20 11:45:43 51°27.516 3°7.585 17.8002 4.271537 32.311938 -3.020363
2011-07-20 11:46:43 51°27.442 3°7.491 17.8023 4.270604 32.309094 -3.020363
2011-07-20 11:47:42 51°27.372 3°7.412 17.7956 4.269982 32.306358 -3.020363
2011-07-20 11:48:43 51°27.308 3°7.343 17.7882 4.269256 32.303376 -3.020363
2011-07-20 11:49:41 51°27.255 3°7.274 17.7877 4.268116 32.299408 -3.020363
2011-07-20 11:50:42 51°27.205 3°7.197 17.7834 4.267805 32.296149 -3.020363
2011-07-20 11:51:41 51°27.164 3°7.118 17.7715 4.266872 32.295194 -3.020363
2011-07-20 11:52:43 51°27.123 3°7.034 17.7678 4.266146 32.295993 -3.020363
2011-07-20 11:53:42 51°27.083 3°6.954 17.7619 4.265731 32.296269 -3.020363
2011-07-20 11:54:43 51°27.039 3°6.874 17.7581 4.265628 32.298546 -3.020363
2011-07-20 11:55:43 51°26.995 3°6.795 17.756 4.265939 32.303068 -3.020363
2011-07-20 11:56:42 51°26.951 3°6.718 17.7561 4.266665 32.312362 -3.020363
2011-07-20 11:57:43 51°26.905 3°6.641 17.752 4.267909 32.32478 -3.020363
2011-07-20 11:58:42 51°26.859 3°6.564 17.7491 4.26905 32.336323 -3.020363
2011-07-20 11:59:43 51°26.817 3°6.477 17.7448 4.270709 32.353519 -3.020363
2011-07-20 12:00:42 51°26.81 3°6.371 17.7502 4.27299 32.371556 -3.020363
2011-07-20 12:01:42 51°26.834 3°6.279 17.7475 4.276723 32.402512 -3.020363
2011-07-20 12:02:43 51°26.875 3°6.215 17.7508 4.277863 32.411531 -3.020363
2011-07-20 12:03:42 51°26.914 3°6.2 17.7533 4.278693 32.416019 -3.020363
2011-07-20 12:04:43 51°26.953 3°6.207 17.7565 4.279315 32.42065 -3.020363
2011-07-20 12:05:42 51°26.993 3°6.212 17.7691 4.278796 32.412464 -3.020363
2011-07-20 12:06:43 51°27.04 3°6.213 17.7706 4.278174 32.400872 -3.020363
2011-07-20 12:07:43 51°27.084 3°6.237 17.7621 4.277137 32.388939 -3.020363
2011-07-20 12:08:43 51°27.113 3°6.3 17.7491 4.274338 32.374741 -3.020363
2011-07-20 12:09:43 51°27.138 3°6.373 17.7518 4.27413 32.378678 -3.020363
2011-07-20 12:10:43 51°27.165 3°6.443 17.7513 4.273301 32.373556 -3.020363
2011-07-20 12:11:43 51°27.192 3°6.516 17.7437 4.272886 32.372576 -3.020363
2011-07-20 12:12:42 51°27.217 3°6.59 17.7432 4.272264 32.369209 -3.020363
2011-07-20 12:13:43 51°27.241 3°6.67 17.7407 4.271849 32.366964 -3.020363
2011-07-20 12:14:41 51°27.265 3°6.746 17.7355 4.271124 32.361454 -3.020363
2011-07-20 12:15:43 51°27.294 3°6.823 17.7354 4.270916 32.362861 -3.020363
2011-07-20 12:16:41 51°27.32 3°6.896 17.7334 4.270605 32.360861 -3.020363
2011-07-20 12:17:43 51°27.347 3°6.974 17.7299 4.269361 32.352859 -3.020363
2011-07-20 12:18:41 51°27.373 3°7.052 17.7273 4.269879 32.358512 -3.020363
2011-07-20 12:19:43 51°27.399 3°7.136 17.7285 4.269568 32.357144 -3.020363
2011-07-20 12:20:42 51°27.421 3°7.216 17.7242 4.26905 32.354021 -3.020363
2011-07-20 12:21:43 51°27.417 3°7.314 17.7214 4.268324 32.351039 -3.020363
2011-07-20 12:22:43 51°27.394 3°7.41 17.7206 4.267806 32.349812 -3.020363
2011-07-20 12:23:42 51°27.347 3°7.498 17.7135 4.266873 32.343177 -3.020363
2011-07-20 12:24:43 51°27.285 3°7.575 17.719 4.265939 32.336541 -3.020363
2011-07-20 12:25:42 51°27.218 3°7.615 17.7151 4.264695 32.326008 -3.020363
2011-07-20 12:26:43 51°27.142 3°7.625 17.714 4.26428 32.322497 -3.020363
2011-07-20 12:27:42 51°27.077 3°7.609 17.7192 4.264799 32.324989 -3.020363
2011-07-20 12:28:42 51°27.025 3°7.587 17.7241 4.264591 32.321338 -3.020363
2011-07-20 12:29:43 51°26.981 3°7.562 17.7255 4.264591 32.318811 -3.020363
2011-07-20 12:30:42 51°26.927 3°7.598 17.7253 4.26428 32.314914 -3.020363
2011-07-20 12:31:42 51°26.893 3°7.589 17.7289 4.264177 32.312142 -3.020363
2011-07-20 12:32:42 51°26.863 3°7.555 17.7297 4.264176 32.310879 -3.020363
2011-07-20 12:33:42 51°26.846 3°7.414 17.7381 4.264176 32.308985 -3.020363
2011-07-20 12:34:41 51°26.847 3°7.295 17.7407 4.264073 32.304319 -3.020363
2011-07-20 12:35:42 51°26.845 3°7.191 17.7414 4.264591 32.303656 -3.020363
2011-07-20 12:36:41 51°26.843 3°7.096 17.7434 4.264902 32.306287 -3.020363
2011-07-20 12:37:42 51°26.838 3°7.003 17.7438 4.265213 32.30955 -3.020363
2011-07-20 12:38:43 51°26.833 3°6.914 17.7417 4.265421 32.311304 -3.020363
2011-07-20 12:39:42 51°26.83 3°6.831 17.7427 4.266043 32.315936 -3.020363
2011-07-20 12:40:42 51°26.828 3°6.746 17.7411 4.266561 32.320323 -3.020363
2011-07-20 12:41:43 51°26.823 3°6.658 17.745 4.266976 32.323832 -3.020363
2011-07-20 12:42:42 51°26.815 3°6.572 17.7477 4.267702 32.328078 -3.020363
2011-07-20 12:43:41 51°26.81 3°6.488 17.7463 4.268531 32.333832 -3.020363
2011-07-20 12:44:42 51°26.807 3°6.403 17.7461 4.269153 32.339096 -3.020363
2011-07-20 12:45:43 51°26.803 3°6.316 17.7448 4.269775 32.344991 -3.020363
2011-07-20 12:46:43 51°26.795 3°6.23 17.751 4.270501 32.349236 -3.020363
2011-07-20 12:47:43 51°26.789 3°6.144 17.7477 4.271434 32.355868 -3.020363
2011-07-20 12:48:43 51°26.785 3°6.059 17.7455 4.272057 32.362396 -3.020363
2011-07-20 12:49:43 51°26.782 3°5.974 17.745 4.272679 32.368924 -3.020363
2011-07-20 12:50:43 51°26.777 3°5.888 17.7451 4.273612 32.377453 -3.020363
2011-07-20 12:51:43 51°26.769 3°5.802 17.7433 4.274234 32.383351 -3.020363
2011-07-20 12:52:42 51°26.763 3°5.716 17.7421 4.27496 32.391392 -3.020363
2011-07-20 12:53:43 51°26.761 3°5.633 17.7406 4.275686 32.398167 -3.020363
2011-07-20 12:54:42 51°26.77 3°5.569 17.7421 4.276826 32.407821 -3.020363
2011-07-20 12:55:43 51°26.793 3°5.536 17.7403 4.27776 32.41572 -3.020363
2011-07-20 12:56:42 51°26.814 3°5.559 17.7403 4.279004 32.427519 -3.020363
2011-07-20 12:57:43 51°26.817 3°5.634 17.7394 4.279937 32.436053 -3.020363
2011-07-20 12:58:42 51°26.824 3°5.734 17.7458 4.280663 32.44093 -3.020363
2011-07-20 12:59:43 51°26.84 3°5.845 17.7466 4.281078 32.442539 -3.020363
2011-07-20 13:00:43 51°26.851 3°5.951 17.7459 4.281181 32.440248 -3.020363
2011-07-20 13:01:42 51°26.86 3°6.054 17.746 4.280663 32.437127 -3.020363
2011-07-20 13:02:43 51°26.868 3°6.16 17.7405 4.280145 32.432739 -3.020363
2011-07-20 13:03:42 51°26.874 3°6.264 17.7416 4.279211 32.428008 -3.020363
2011-07-20 13:04:43 51°26.881 3°6.371 17.7381 4.278278 32.422009 -3.020363
2011-07-20 13:05:43 51°26.89 3°6.475 17.7413 4.277138 32.412987 -3.020363
2011-07-20 13:06:43 51°26.901 3°6.578 17.7414 4.276308 32.404699 -3.020363
2011-07-20 13:07:43 51°26.912 3°6.682 17.7459 4.275893 32.398657 -3.020363
2011-07-20 13:08:43 51°26.921 3°6.788 17.7458 4.275375 32.39237 -3.020363
2011-07-20 13:09:43 51°26.927 3°6.896 17.7505 4.274753 32.385207 -3.020363
2011-07-20 13:10:41 51°26.935 3°7.001 17.7477 4.274338 32.380432 -3.020363
2011-07-20 13:11:43 51°26.947 3°7.109 17.7487 4.273716 32.373904 -3.020363
2011-07-20 13:12:41 51°26.959 3°7.212 17.7511 4.273197 32.370149 -3.020363
2011-07-20 13:13:43 51°26.968 3°7.326 17.7511 4.27299 32.367763 -3.020363
2011-07-20 13:14:43 51°26.975 3°7.436 17.7504 4.272575 32.364886 -3.020363
2011-07-20 13:15:42 51°26.984 3°7.544 17.746 4.272264 32.363518 -3.020363
2011-07-20 13:16:43 51°27.011 3°7.622 17.7468 4.271849 32.361905 -3.020363
2011-07-20 13:17:42 51°27.051 3°7.626 17.743 4.271642 32.361415 -3.020363
2011-07-20 13:18:43 51°27.079 3°7.563 17.7393 4.271435 32.362189 -3.020363
2011-07-20 13:19:41 51°27.084 3°7.467 17.7415 4.271435 32.362822 -3.020363
2011-07-20 13:20:42 51°27.083 3°7.348 17.7392 4.271953 32.368474 -3.020363
2011-07-20 13:21:43 51°27.079 3°7.222 17.7323 4.272057 32.371882 -3.020363
2011-07-20 13:22:42 51°27.075 3°7.098 17.7285 4.272161 32.376556 -3.020363
2011-07-20 13:23:43 51°27.073 3°6.969 17.7242 4.272368 32.38021 -3.020363
2011-07-20 13:24:42 51°27.074 3°6.846 17.7191 4.272472 32.382986 -3.020363
2011-07-20 13:25:43 51°27.075 3°6.719 17.714 4.272679 32.389807 -3.020363
2011-07-20 13:26:42 51°27.071 3°6.594 17.7133 4.273301 32.398242 -3.020363
2011-07-20 13:27:43 51°27.067 3°6.464 17.7092 4.274131 32.407168 -3.020363
2011-07-20 13:28:43 51°27.066 3°6.338 17.7032 4.274857 32.41585 -3.020363
2011-07-20 13:29:42 51°27.067 3°6.216 17.7054 4.275479 32.424925 -3.020363
2011-07-20 13:30:43 51°27.067 3°6.087 17.7044 4.276516 32.433074 -3.020363
2011-07-20 13:31:42 51°27.093 3°6.003 17.7027 4.277864 32.448301 -3.020363
2011-07-20 13:32:43 51°27.132 3°6.015 17.6862 4.282219 32.485203 -3.020363
2011-07-20 13:33:43 51°27.137 3°6.097 17.684 4.284708 32.516471 -3.020363
2011-07-20 13:34:43 51°27.134 3°6.206 17.6848 4.28533 32.523655 -3.020363
2011-07-20 13:35:43 51°27.14 3°6.321 17.6927 4.285537 32.524777 -3.020363
2011-07-20 13:36:43 51°27.144 3°6.445 17.6893 4.284811 32.512897 -3.020363
2011-07-20 13:37:43 51°27.147 3°6.57 17.6903 4.283256 32.501621 -3.020363
2011-07-20 13:38:43 51°27.147 3°6.697 17.6884 4.282115 32.491953 -3.020363
2011-07-20 13:39:42 51°27.159 3°6.842 17.6881 4.280664 32.482191 -3.020363
2011-07-20 13:40:43 51°27.26 3°6.937 17.6902 4.279523 32.473158 -3.020363
2011-07-20 13:41:43 51°27.356 3°6.819 17.6873 4.278694 32.467398 -3.020363
2011-07-20 13:42:43 51°27.443 3°6.568 17.6747 4.279834 32.476431 -3.020363
2011-07-20 13:43:42 51°27.521 3°6.276 17.6928 4.282219 32.501736 -3.020363
2011-07-20 13:44:43 51°27.613 3°5.982 17.6905 4.289167 32.549179 -3.020363
2011-07-20 13:45:42 51°27.715 3°5.708 17.6959 4.293418 32.590326 -3.020363
2011-07-20 13:46:43 51°27.83 3°5.435 17.7319 4.30555 32.662556 -3.020363
2011-07-20 13:47:42 51°27.94 3°5.169 17.6996 4.316957 32.751582 -3.020363
2011-07-20 13:48:43 51°28.049 3°4.89 17.6977 4.322868 32.814529 -3.020363
2011-07-20 13:49:43 51°28.166 3°4.623 17.6934 4.327949 32.864068 -3.020363
2011-07-20 13:50:43 51°28.274 3°4.344 17.689 4.330127 32.881907 -3.020363
2011-07-20 13:51:43 51°28.39 3°4.067 17.7065 4.331579 32.90324 -3.020363
2011-07-20 13:52:43 51°28.504 3°3.785 17.7803 4.332719 32.884615 -3.020363
2011-07-20 13:53:42 51°28.621 3°3.51 17.8608 4.336659 32.869224 -3.020363
2011-07-20 13:54:43 51°28.74 3°3.225 18.1575 4.340183 32.770617 -3.020363
2011-07-20 13:55:41 51°28.854 3°2.953 18.0444 4.34381 32.658601 -3.020363
2011-07-20 13:56:42 51°28.973 3°2.666 17.9867 4.336137 32.665454 -3.020363
2011-07-20 13:57:43 51°29.095 3°2.387 17.9481 4.335827 32.703381 -3.020363
2011-07-20 13:58:43 51°29.209 3°2.109 17.8766 4.337901 32.752001 -3.020363
2011-07-20 13:59:43 51°29.304 3°1.812 17.9376 4.339976 32.826893 -3.020363
2011-07-20 14:00:43 51°29.381 3°1.497 17.9388 4.343087 32.813605 -3.020363
2011-07-20 14:01:43 51°29.448 3°1.277 17.9114 4.347028 32.847525 -3.020363
2011-07-20 14:02:42 51°29.472 3°1.139 17.9466 4.351176 32.89983 -3.020363
2011-07-20 14:03:43 51°29.464 3°1.031 18.012 4.357709 32.916012 -3.020363
2011-07-20 14:04:43 51°29.447 3°0.939 18.0329 4.364242 32.939205 -3.020363
2011-07-20 14:05:42 51°29.432 3°0.853 18.0153 4.369739 32.969599 -3.020363
2011-07-20 14:06:43 51°29.419 3°0.765 18.0028 4.371606 32.996223 -3.020363
2011-07-20 14:07:43 51°29.407 3°0.679 17.9934 4.373784 33.018445 -3.020363
2011-07-20 14:08:43 51°29.397 3°0.593 17.9969 4.377621 33.050195 -3.020363
2011-07-20 14:09:43 51°29.387 3°0.507 17.9872 4.382703 33.101447 -3.020363
2011-07-20 14:10:43 51°29.374 3°0.423 17.9838 4.387889 33.149749 -3.020363
2011-07-20 14:11:42 51°29.361 3°0.341 17.9769 4.392245 33.191062 -3.020363
2011-07-20 14:12:43 51°29.347 3°0.255 17.9568 4.397638 33.248262 -3.020363
2011-07-20 14:13:43 51°29.339 3°0.17 17.9555 4.401684 33.292814 -3.020363
2011-07-20 14:14:42 51°29.328 3°0.088 17.9595 4.404899 33.31872 -3.020363
2011-07-20 14:15:43 51°29.306 3°0.011 17.9804 4.408114 33.342037 -3.020363
2011-07-20 14:16:43 51°29.275 2°59.943 18.0016 4.412159 33.353585 -3.020363
2011-07-20 14:17:43 51°29.242 2°59.877 18.0159 4.41527 33.371476 -3.020363
2011-07-20 14:18:43 51°29.211 2°59.81 18.0399 4.418796 33.385745 -3.020363
2011-07-20 14:19:43 51°29.181 2°59.741 18.0287 4.421908 33.401032 -3.020363
2011-07-20 14:20:42 51°29.153 2°59.671 18.0388 4.423256 33.411778 -3.020363
2011-07-20 14:21:43 51°29.124 2°59.6 18.0592 4.425642 33.420923 -3.020363
2011-07-20 14:22:42 51°29.093 2°59.534 18.0397 4.427612 33.435628 -3.020363
2011-07-20 14:23:42 51°29.062 2°59.469 18.0274 4.427716 33.451415 -3.020363
2011-07-20 14:24:43 51°29.03 2°59.402 18.0271 4.427924 33.460305 -3.020363
2011-07-20 14:25:43 51°28.999 2°59.336 18.027 4.428442 33.462093 -3.020363
2011-07-20 14:26:43 51°28.972 2°59.269 18.0267 4.429168 33.465635 -3.020363
2011-07-20 14:27:43 51°28.944 2°59.202 18.0092 4.429376 33.476477 -3.020363
2011-07-20 14:28:43 51°28.916 2°59.136 18.0175 4.429272 33.482744 -3.020363
2011-07-20 14:29:42 51°28.887 2°59.075 18.006 4.429999 33.488235 -3.020363
2011-07-20 14:30:43 51°28.857 2°59.012 17.9904 4.430414 33.501494 -3.020363
2011-07-20 14:31:42 51°28.829 2°58.95 17.9838 4.43114 33.514792 -3.020363
2011-07-20 14:32:43 51°28.803 2°58.884 17.9746 4.431866 33.524841 -3.020363
2011-07-20 14:33:43 51°28.778 2°58.819 17.9695 4.432281 33.536166 -3.020363
2011-07-20 14:34:42 51°28.752 2°58.758 17.9642 4.432696 33.54489 -3.020363
2011-07-20 14:35:43 51°28.724 2°58.697 17.9432 4.432696 33.55206 -3.020363
2011-07-20 14:36:43 51°28.697 2°58.637 17.9223 4.431763 33.559805 -3.020363
2011-07-20 14:37:43 51°28.671 2°58.57 17.9175 4.430518 33.564269 -3.020363
2011-07-20 14:38:43 51°28.605 2°58.454 17.9403 4.42917 33.560674 -3.020363
2011-07-20 14:39:43 51°28.466 2°58.328 17.9933 4.427821 33.519897 -3.020363
2011-07-20 14:40:42 51°28.297 2°58.174 18.0527 4.429273 33.491191 -3.020363
2011-07-20 14:41:43 51°28.113 2°58.037 18.0634 4.434043 33.480232 -3.020363
2011-07-20 14:42:43 51°27.929 2°57.907 17.9959 4.426679 33.427742 -3.020363
2011-07-20 14:43:42 51°27.75 2°57.775 17.9447 4.413922 33.381454 -3.020363
2011-07-20 14:44:43 51°27.554 2°57.679 17.895 4.392971 33.222352 -3.020363
2011-07-20 14:45:43 51°27.368 2°57.558 17.805 4.399092 33.335661 -3.020363
2011-07-20 14:46:43 51°27.18 2°57.446 17.7649 4.408635 33.481117 -3.020363
2011-07-20 14:47:43 51°26.986 2°57.349 17.7447 4.414029 33.553144 -3.020363
2011-07-20 14:48:43 51°26.796 2°57.246 17.7312 4.417037 33.595793 -3.020363
2011-07-20 14:49:42 51°26.605 2°57.155 17.7256 4.415689 33.593516 -3.020363
2011-07-20 14:50:43 51°26.414 2°57.037 17.7148 4.416519 33.609782 -3.020363
2011-07-20 14:51:43 51°26.222 2°56.936 17.7374 4.41766 33.620153 -3.020363
2011-07-20 14:52:42 51°26.031 2°56.847 17.7588 4.414755 33.57047 -3.020363
2011-07-20 14:53:43 51°25.84 2°56.729 17.7841 4.415896 33.563774 -3.020363
2011-07-20 14:54:43 51°25.651 2°56.621 17.9127 4.41631 33.543057 -3.020363
2011-07-20 14:55:42 51°25.465 2°56.524 17.9861 4.396291 33.267879 -3.020363
2011-07-20 14:56:43 51°25.274 2°56.412 17.9448 4.387993 33.155773 -3.020363
2011-07-20 14:57:43 51°25.084 2°56.313 17.821 4.408426 33.388132 -3.020363
2011-07-20 14:58:42 51°24.899 2°56.217 17.7529 4.427201 33.630363 -3.020363
2011-07-20 14:59:43 51°24.711 2°56.108 17.868 4.423986 33.612877 -3.020363
2011-07-20 15:00:43 51°24.525 2°56.009 17.8962 4.41019 33.431043 -3.020363
2011-07-20 15:01:42 51°24.345 2°55.898 17.9359 4.40936 33.40319 -3.020363
2011-07-20 15:02:43 51°24.154 2°55.808 17.9347 4.412367 33.392289 -3.020363
2011-07-20 15:03:43 51°23.97 2°55.717 17.8653 4.421287 33.489947 -3.020363
2011-07-20 15:04:42 51°23.788 2°55.627 17.7905 4.424089 33.571161 -3.020363
2011-07-20 15:05:43 51°23.605 2°55.516 17.7364 4.423467 33.619627 -3.020363
2011-07-20 15:06:43 51°23.421 2°55.423 17.7129 4.420875 33.63174 -3.020363
2011-07-20 15:07:42 51°23.24 2°55.329 17.6746 4.418386 33.634233 -3.020363
2011-07-20 15:08:43 51°23.054 2°55.232 17.6388 4.415482 33.641765 -3.020363
2011-07-20 15:09:43 51°22.872 2°55.126 17.5846 4.412786 33.651751 -3.020363
2011-07-20 15:10:42 51°22.688 2°55.038 17.5874 4.409675 33.660204 -3.020363
2011-07-20 15:11:43 51°22.503 2°54.938 17.761 4.403141 33.583304 -3.020363
2011-07-20 15:12:41 51°22.329 2°54.848 17.8109 4.358645 33.062006 -3.020363
2011-07-20 15:13:42 51°22.147 2°54.741 17.8269 4.332096 32.824167 -3.020363
2011-07-20 15:14:43 51°21.965 2°54.633 17.8464 4.319963 32.702947 -3.020363
2011-07-20 15:15:43 51°21.784 2°54.539 17.843 4.320999 32.695786 -3.020363
2011-07-20 15:16:43 51°21.607 2°54.426 17.7147 4.332822 32.829034 -3.020363
2011-07-20 15:17:43 51°21.429 2°54.325 17.6075 4.343609 33.02026 -3.020363
2011-07-20 15:18:43 51°21.249 2°54.234 17.5486 4.347136 33.113777 -3.020363
2011-07-20 15:19:43 51°21.072 2°54.131 17.4983 4.353152 33.21586 -3.020363
2011-07-20 15:20:43 51°20.897 2°54.019 17.5007 4.358234 33.291294 -3.020363
2011-07-20 15:21:42 51°20.718 2°53.931 17.5598 4.363938 33.320342 -3.020363
2011-07-20 15:22:43 51°20.538 2°53.823 17.5874 4.375657 33.383649 -3.020363
2011-07-20 15:23:41 51°20.368 2°53.718 17.6175 4.38748 33.464169 -3.020363
2011-07-20 15:24:42 51°20.183 2°53.627 17.603 4.393183 33.482598 -3.020363
2011-07-20 15:25:43 51°20.002 2°53.521 17.5584 4.409364 33.654242 -3.020363
2011-07-20 15:26:42 51°19.826 2°53.423 17.5614 4.418907 33.762925 -3.020363
2011-07-20 15:27:43 51°19.645 2°53.319 17.5739 4.426167 33.82035 -3.020363
2011-07-20 15:28:43 51°19.464 2°53.233 17.5924 4.431146 33.847621 -3.020363
2011-07-20 15:29:43 51°19.286 2°53.127 17.5837 4.438821 33.905248 -3.020363
2011-07-20 15:30:43 51°19.106 2°53.037 17.5972 4.447327 33.983976 -3.020363
2011-07-20 15:31:42 51°18.93 2°52.941 17.5813 4.455106 34.040491 -3.020363
2011-07-20 15:32:43 51°18.745 2°52.851 17.5643 4.46382 34.129774 -3.020363
2011-07-20 15:33:43 51°18.562 2°52.761 17.4777 4.473882 34.24014 -3.020363
2011-07-20 15:34:42 51°18.381 2°52.677 17.4233 4.484983 34.402957 -3.020363
2011-07-20 15:35:43 51°18.196 2°52.576 17.3935 4.490274 34.487852 -3.020363
2011-07-20 15:36:43 51°18.009 2°52.508 17.3829 4.492142 34.531189 -3.020363
2011-07-20 15:37:43 51°17.821 2°52.439 17.3648 4.492557 34.542271 -3.020363
2011-07-20 15:38:43 51°17.629 2°52.441 17.3375 4.492557 34.559352 -3.020363
2011-07-20 15:39:43 51°17.434 2°52.478 17.304 4.492039 34.574718 -3.020363
2011-07-20 15:40:42 51°17.247 2°52.559 17.2787 4.488097 34.571536 -3.020363
2011-07-20 15:41:42 51°17.061 2°52.695 17.263 4.48872 34.592672 -3.020363
2011-07-20 15:42:43 51°16.867 2°52.81 17.2744 4.487268 34.588366 -3.020363
2011-07-20 15:43:42 51°16.683 2°52.944 17.2825 4.487164 34.584041 -3.020363
2011-07-20 15:44:42 51°16.493 2°53.07 17.2715 4.488513 34.588824 -3.020363
2011-07-20 15:45:43 51°16.304 2°53.215 17.2679 4.486127 34.574402 -3.020363
2011-07-20 15:46:42 51°16.116 2°53.324 17.2739 4.485816 34.579944 -3.020363
2011-07-20 15:47:43 51°15.924 2°53.453 17.3112 4.487268 34.581508 -3.020363
2011-07-20 15:48:42 51°15.741 2°53.595 17.5396 0.112319 0.658678 -3.020363
2011-07-20 15:49:42 51°15.559 2°53.763 17.6138 0.081061 0.469219 -3.020363
2011-07-20 15:50:42 51°15.383 2°53.942 17.714 0.071088 0.409493 -3.020363
2011-07-20 15:51:42 51°15.214 2°54.145 17.8036 0.064816 0.372131 -3.020363
2011-07-20 15:52:42 51°15.054 2°54.366 17.8731 0.059469 0.340431 -3.020363
2011-07-20 15:53:42 51°14.9 2°54.6 17.9313 0.055768 0.318563 -3.020363
2011-07-20 15:54:42 51°14.739 2°54.818 17.9669 0.052683 0.300391 -3.020363
2011-07-20 15:55:42 51°14.567 2°54.992 18.049 0.050113 0.285276 -3.020363
2011-07-20 15:56:43 51°14.388 2°55.128 18.1492 0.047851 0.272002 -3.020363
2011-07-20 15:57:42 51°14.25 2°55.285 18.2234 0.046309 0.262953 -3.020363
2011-07-20 15:58:43 51°14.134 2°55.405 18.3257 0.045075 0.255713 -3.020363
2011-07-20 15:59:42 51°14.014 2°55.498 18.405 0.043944 0.249082 -3.020363
2011-07-20 16:00:42 51°13.91 2°55.573 18.4818 0.042916 0.24306 -3.020363
2011-07-20 16:01:42 51°13.812 2°55.645 18.5283 0.042094 0.238237 -3.020363
2011-07-20 16:02:42 51°13.737 2°55.739 18.6221 0.041271 0.233413 -3.020363
2011-07-20 16:03:43 51°13.689 2°55.837 18.7083 0.040449 0.228606 -3.020363
2011-07-20 16:04:42 51°13.655 2°55.929 18.789 0.039729 0.22439 -3.020363
2011-07-20 16:05:43 51°13.638 2°56.008 18.8593 0.039112 0.220777 -3.020363
2011-07-20 16:06:42 51°13.636 2°56.018 18.9325 0.038495 0.217165 -3.020363